Rostein — LLHI — position and weather

sailwx.info

Track history (hours):
 
Tides and Currents Weather Stations Pressure Air Temp Water Temp Dewpoint Dewpoint Depression Visibility Wind Speed Wind Dir Waves Ship Positions

Rostein

Last reported at 2016-Jul-28 15:21 UTC. Time now 2016-Jul-29 02:07 UTC.
Position N 69°21' E 018°05'.

Length 57 m; draft 4 m.

Type: Cargo ship. MMSI: 257210000.

Date/timePositionNaut miles runAvg speedWind from/ knotsBaromVisibWave heightAir tempDewpointWater temp
2016-Jul-28 15:21N 69°21' E 018°05'810.7
2016-Jul-28 14:33N 69°13' E 017°59'10 9.6
2016-Jul-28 13:33N 69°07' E 017°37'1211.1
2016-Jul-28 12:27N 68°60' E 017°10'3 0.2
2016-Jul-27 23:16N 68°59' E 017°02'9 9.3
2016-Jul-27 22:19N 69°04' E 017°22'7 9.7
2016-Jul-27 21:33N 69°08' E 017°41'8 8.4
2016-Jul-27 20:33N 69°13' E 017°59'7 0.2
2016-Jul-26 05:33N 69°20' E 018°01'1010.2
2016-Jul-26 04:33N 69°10' E 017°56'1211.6
2016-Jul-26 03:33N 69°05' E 017°26'1 0.1
2016-Jul-25 07:21N 69°04' E 017°23'810.5
2016-Jul-25 06:33N 69°08' E 017°44'8 8.0
2016-Jul-25 05:33N 69°14' E 017°58'  
2016-Jul-22 18:09N 69°20' E 018°03'5 9.1
2016-Jul-22 17:33N 69°15' E 017°58'7 7.4
2016-Jul-22 16:33N 69°09' E 017°48'6 1.6
2016-Jul-22 12:33N 69°06' E 017°31'1211.9
2016-Jul-22 11:33N 69°12' E 018°01'10 0.5
2016-Jul-21 14:04N 69°21' E 018°06'5 9.4
2016-Jul-21 13:33N 69°17' E 017°58'8 8.0
2016-Jul-21 12:33N 69°10' E 017°54'10 9.7
2016-Jul-21 11:30N 69°06' E 017°27'9 0.5
2016-Jul-20 18:29N 68°60' E 017°09'910.2
2016-Jul-20 17:34N 69°06' E 017°29'1110.8
2016-Jul-20 16:33N 69°10' E 017°57'9 9.2
2016-Jul-20 15:33N 69°19' E 018°00'3 0.1
2016-Jul-19 08:33N 69°17' E 017°58'8 8.4
2016-Jul-19 07:33N 69°09' E 017°49'  
Track history (hours):
 
Tides and Currents Weather Stations Pressure Air Temp Water Temp Dewpoint Dewpoint Depression Visibility Wind Speed Wind Dir Waves Ship Positions

Rostein

Last reported at 2016-Jul-28 15:21 UTC. Time now 2016-Jul-29 02:07 UTC.
Position N 69°21' E 018°05'.

Length 57 m; draft 4 m.

Type: Cargo ship. MMSI: 257210000.

Date/timePositionNaut miles runAvg speedWind from/ knotsBaromVisibWave heightAir tempDewpointWater temp
2016-Jul-28 15:21N 69°21' E 018°05'810.7
2016-Jul-28 14:33N 69°13' E 017°59'10 9.6
2016-Jul-28 13:33N 69°07' E 017°37'1211.1
2016-Jul-28 12:27N 68°60' E 017°10'3 0.2
2016-Jul-27 23:16N 68°59' E 017°02'9 9.3
2016-Jul-27 22:19N 69°04' E 017°22'7 9.7
2016-Jul-27 21:33N 69°08' E 017°41'8 8.4
2016-Jul-27 20:33N 69°13' E 017°59'7 0.2
2016-Jul-26 05:33N 69°20' E 018°01'1010.2
2016-Jul-26 04:33N 69°10' E 017°56'1211.6
2016-Jul-26 03:33N 69°05' E 017°26'1 0.1
2016-Jul-25 07:21N 69°04' E 017°23'810.5
2016-Jul-25 06:33N 69°08' E 017°44'8 8.0
2016-Jul-25 05:33N 69°14' E 017°58'  
2016-Jul-22 18:09N 69°20' E 018°03'5 9.1
2016-Jul-22 17:33N 69°15' E 017°58'7 7.4
2016-Jul-22 16:33N 69°09' E 017°48'6 1.6
2016-Jul-22 12:33N 69°06' E 017°31'1211.9
2016-Jul-22 11:33N 69°12' E 018°01'10 0.5
2016-Jul-21 14:04N 69°21' E 018°06'5 9.4
2016-Jul-21 13:33N 69°17' E 017°58'8 8.0
2016-Jul-21 12:33N 69°10' E 017°54'10 9.7
2016-Jul-21 11:30N 69°06' E 017°27'9 0.5
2016-Jul-20 18:29N 68°60' E 017°09'910.2
2016-Jul-20 17:34N 69°06' E 017°29'1110.8
2016-Jul-20 16:33N 69°10' E 017°57'9 9.2
2016-Jul-20 15:33N 69°19' E 018°00'3 0.1
2016-Jul-19 08:33N 69°17' E 017°58'8 8.4
2016-Jul-19 07:33N 69°09' E 017°49'  

Dump ship's entire track history